createdAt,value
2023-07-29T00:01:37.261Z,1.60
2023-07-29T00:04:37.647Z,1.93
2023-07-29T00:07:36.998Z,1.47
2023-07-29T00:10:37.146Z,2.47
2023-07-29T00:13:38.759Z,1.20
2023-07-29T00:16:37.239Z,1.53
2023-07-29T00:19:37.153Z,3.20
2023-07-29T00:22:37.038Z,2.67
2023-07-29T00:25:37.085Z,3.47
2023-07-29T00:28:39.815Z,2.73
2023-07-29T00:31:37.352Z,3.00
2023-07-29T00:34:37.136Z,2.33
2023-07-29T00:37:37.947Z,2.00
2023-07-29T00:40:37.108Z,1.53
2023-07-29T00:43:37.012Z,1.80
2023-07-29T00:46:37.397Z,1.33
2023-07-29T00:49:37.566Z,2.33
2023-07-29T00:52:37.059Z,1.60
2023-07-29T00:55:37.003Z,1.60
2023-07-29T00:58:37.010Z,2.07
2023-07-29T01:01:37.126Z,2.47
2023-07-29T01:04:37.622Z,5.47
2023-07-29T01:07:37.132Z,2.20
2023-07-29T01:10:37.032Z,2.00
2023-07-29T01:13:37.064Z,1.53
2023-07-29T01:16:39.424Z,1.40
2023-07-29T01:19:37.185Z,1.00
2023-07-29T01:22:37.172Z,0.93
2023-07-29T01:25:37.090Z,1.47
2023-07-29T01:28:37.107Z,1.00
2023-07-29T01:31:39.213Z,1.13
2023-07-29T01:34:37.030Z,1.00
2023-07-29T01:37:36.971Z,1.27
2023-07-29T01:40:36.971Z,1.07
2023-07-29T01:43:37.002Z,1.00
2023-07-29T01:46:37.294Z,1.00
2023-07-29T01:49:37.082Z,2.00
2023-07-29T01:52:37.159Z,1.27
2023-07-29T01:55:37.093Z,0.00
2023-07-29T01:58:36.972Z,1.00
2023-07-29T02:01:37.238Z,2.00
2023-07-29T02:04:37.208Z,1.13
2023-07-29T02:07:37.071Z,1.00
2023-07-29T02:10:37.116Z,2.33
2023-07-29T02:13:37.029Z,2.53
2023-07-29T02:16:37.224Z,2.93
2023-07-29T02:19:37.025Z,3.20
2023-07-29T02:22:36.968Z,3.40
2023-07-29T02:25:37.255Z,4.00
2023-07-29T02:28:37.425Z,4.40
2023-07-29T02:31:37.270Z,4.67
2023-07-29T02:34:37.308Z,4.00
2023-07-29T02:37:37.043Z,5.40
2023-07-29T02:40:37.137Z,5.00
2023-07-29T02:43:36.995Z,5.00
2023-07-29T02:46:37.578Z,5.80
2023-07-29T02:49:37.322Z,5.60
2023-07-29T02:52:37.103Z,5.53
2023-07-29T02:55:37.039Z,6.33
2023-07-29T02:58:37.204Z,5.60
2023-07-29T03:01:37.438Z,5.00
2023-07-29T03:04:37.476Z,5.07
2023-07-29T03:07:36.965Z,4.93
2023-07-29T03:10:37.094Z,5.00
2023-07-29T03:13:36.976Z,4.00
2023-07-29T03:16:37.402Z,3.80
2023-07-29T03:19:37.099Z,3.00
2023-07-29T03:22:36.941Z,3.73
2023-07-29T03:25:37.179Z,4.00
2023-07-29T03:28:37.034Z,3.33
2023-07-29T03:31:37.267Z,3.40
2023-07-29T03:34:37.080Z,3.87
2023-07-29T03:37:37.049Z,2.53
2023-07-29T03:40:37.836Z,3.07
2023-07-29T03:43:37.058Z,3.40
2023-07-29T03:46:37.958Z,2.07
2023-07-29T03:49:37.101Z,3.20
2023-07-29T03:52:37.129Z,2.93
2023-07-29T03:55:37.023Z,2.60
2023-07-29T03:58:36.982Z,3.47
2023-07-29T04:01:37.219Z,3.00
2023-07-29T04:04:37.627Z,2.73
2023-07-29T04:07:37.050Z,2.53
2023-07-29T04:10:37.331Z,2.67
2023-07-29T04:13:37.037Z,2.00
2023-07-29T04:16:37.427Z,2.53
2023-07-29T04:19:37.204Z,1.67
2023-07-29T04:22:37.112Z,1.33
2023-07-29T04:25:37.108Z,1.93
2023-07-29T04:28:37.213Z,1.40
2023-07-29T04:31:37.196Z,1.33
2023-07-29T04:34:39.890Z,0.73
2023-07-29T04:37:37.080Z,0.93
2023-07-29T04:40:37.293Z,0.80
2023-07-29T04:43:37.052Z,0.73
2023-07-29T04:46:37.596Z,1.67
2023-07-29T04:49:37.049Z,1.93
2023-07-29T04:52:37.268Z,1.73
2023-07-29T04:55:37.205Z,0.87
2023-07-29T04:58:37.313Z,1.00
2023-07-29T05:01:37.539Z,0.33
2023-07-29T05:04:37.091Z,0.87
2023-07-29T05:07:37.136Z,1.60
2023-07-29T05:10:37.066Z,0.87
2023-07-29T05:13:37.132Z,2.13
2023-07-29T05:16:37.471Z,0.53
2023-07-29T05:19:37.055Z,1.00
2023-07-29T05:22:37.676Z,1.13
2023-07-29T05:25:37.106Z,0.93
2023-07-29T05:28:37.433Z,1.40
2023-07-29T05:31:37.064Z,1.40
2023-07-29T05:34:37.605Z,0.80
2023-07-29T05:37:37.048Z,1.80
2023-07-29T05:40:37.261Z,0.93
2023-07-29T05:43:36.974Z,0.33
2023-07-29T05:46:37.845Z,0.40
2023-07-29T05:49:37.117Z,1.00
2023-07-29T05:52:37.077Z,1.00
2023-07-29T05:55:37.010Z,1.00
2023-07-29T05:58:37.087Z,1.67
2023-07-29T06:01:39.284Z,1.00
2023-07-29T06:04:37.477Z,1.87
2023-07-29T06:07:36.975Z,2.33
2023-07-29T06:10:36.983Z,1.80
2023-07-29T06:13:37.045Z,2.00
2023-07-29T06:16:37.496Z,2.20
2023-07-29T06:19:37.060Z,2.00
2023-07-29T06:22:37.010Z,2.87
2023-07-29T06:25:37.234Z,2.07
2023-07-29T06:28:37.222Z,2.20
2023-07-29T06:31:37.456Z,2.07
2023-07-29T06:34:37.030Z,3.40
2023-07-29T06:37:37.076Z,3.13
2023-07-29T06:40:37.084Z,2.93
2023-07-29T06:43:36.958Z,3.00
2023-07-29T06:46:37.338Z,3.07
2023-07-29T06:49:37.214Z,3.20
2023-07-29T06:52:37.161Z,3.00
2023-07-29T06:55:37.102Z,3.13
2023-07-29T06:58:37.020Z,3.60
2023-07-29T07:01:37.375Z,3.93
2023-07-29T07:04:37.352Z,3.00
2023-07-29T07:07:37.061Z,3.40
2023-07-29T07:10:37.131Z,4.27
2023-07-29T07:13:37.017Z,3.80
2023-07-29T07:16:37.431Z,3.00
2023-07-29T07:19:37.059Z,3.87
2023-07-29T07:22:37.070Z,4.00
2023-07-29T07:25:39.347Z,3.87
2023-07-29T07:28:37.181Z,3.27
2023-07-29T07:31:37.442Z,3.53
2023-07-29T07:34:37.062Z,5.20
2023-07-29T07:37:37.219Z,3.40
2023-07-29T07:40:37.079Z,3.00
2023-07-29T07:43:36.980Z,3.00
2023-07-29T07:46:37.480Z,3.67
2023-07-29T07:49:37.058Z,3.73
2023-07-29T07:52:37.104Z,2.93
2023-07-29T07:55:37.019Z,3.13
2023-07-29T07:58:37.127Z,3.27
2023-07-29T08:01:37.242Z,3.40
2023-07-29T08:04:37.359Z,3.00
2023-07-29T08:07:37.072Z,3.20
2023-07-29T08:10:37.217Z,2.13
2023-07-29T08:13:39.649Z,2.33
2023-07-29T08:16:37.363Z,3.27
2023-07-29T08:19:39.026Z,2.67
2023-07-29T08:22:37.048Z,2.80
2023-07-29T08:25:36.968Z,2.00
2023-07-29T08:28:37.126Z,3.27
2023-07-29T08:31:37.205Z,3.00
2023-07-29T08:34:37.180Z,3.60
2023-07-29T08:37:37.014Z,3.33
2023-07-29T08:40:37.333Z,4.93
2023-07-29T08:43:37.312Z,2.87
2023-07-29T08:46:37.328Z,3.53
2023-07-29T08:49:37.028Z,3.73
2023-07-29T08:52:37.093Z,1.87
2023-07-29T08:55:37.132Z,2.93
2023-07-29T08:58:36.994Z,2.00
2023-07-29T09:01:40.081Z,2.47
2023-07-29T09:04:37.395Z,0.73
2023-07-29T09:07:37.010Z,2.33
2023-07-29T09:10:37.017Z,2.13
2023-07-29T09:13:37.103Z,2.53
2023-07-29T09:16:37.388Z,2.20
2023-07-29T09:19:39.884Z,2.67
2023-07-29T09:22:37.024Z,2.00
2023-07-29T09:25:37.052Z,2.67
2023-07-29T09:28:37.105Z,2.07
2023-07-29T09:31:37.428Z,1.73
2023-07-29T09:34:37.364Z,2.00
2023-07-29T09:37:37.170Z,2.00
2023-07-29T09:40:37.115Z,1.07
2023-07-29T09:43:37.021Z,1.33
2023-07-29T09:46:37.685Z,1.13
2023-07-29T09:49:37.067Z,1.47
2023-07-29T09:52:37.016Z,1.87
2023-07-29T09:55:37.109Z,2.07
2023-07-29T09:58:37.065Z,1.40
2023-07-29T10:01:37.996Z,1.40
2023-07-29T10:04:37.614Z,0.53
2023-07-29T10:07:37.065Z,1.53
2023-07-29T10:10:37.219Z,1.87
2023-07-29T10:13:38.877Z,1.73
2023-07-29T10:16:37.366Z,1.33
2023-07-29T10:19:37.025Z,0.73
2023-07-29T10:22:37.010Z,1.07
2023-07-29T10:25:36.956Z,1.53
2023-07-29T10:28:37.234Z,1.33
2023-07-29T10:31:37.051Z,0.60
2023-07-29T10:34:37.517Z,0.80
2023-07-29T10:37:36.960Z,1.20
2023-07-29T10:40:37.063Z,0.00
2023-07-29T10:43:36.989Z,0.73
2023-07-29T10:46:42.902Z,0.00
2023-07-29T10:49:37.120Z,1.67
2023-07-29T10:52:39.877Z,1.00
2023-07-29T10:55:37.583Z,0.00
2023-07-29T10:58:37.006Z,1.20
2023-07-29T11:01:37.923Z,1.00
2023-07-29T11:04:37.145Z,1.20
2023-07-29T11:07:37.487Z,1.40
2023-07-29T11:10:37.031Z,2.07
2023-07-29T11:13:37.613Z,2.07
2023-07-29T11:16:37.505Z,1.40
2023-07-29T11:19:37.107Z,1.53
2023-07-29T11:22:36.965Z,1.00
2023-07-29T11:25:37.116Z,1.53
2023-07-29T11:28:39.903Z,0.80
2023-07-29T11:31:37.193Z,0.60
2023-07-29T11:34:37.313Z,0.00
2023-07-29T11:37:37.023Z,0.60
2023-07-29T11:40:37.056Z,0.00
2023-07-29T11:43:37.071Z,0.00
2023-07-29T11:46:49.633Z,0.67
2023-07-29T11:49:37.252Z,0.00
2023-07-29T11:52:37.060Z,0.13
2023-07-29T11:55:36.996Z,0.00
2023-07-29T11:58:36.991Z,0.00
2023-07-29T12:01:37.698Z,0.33
2023-07-29T12:04:37.286Z,0.07
2023-07-29T12:07:37.048Z,0.07
2023-07-29T12:10:38.118Z,0.07
2023-07-29T12:13:36.948Z,0.07
2023-07-29T12:16:37.776Z,0.27
2023-07-29T12:19:37.583Z,0.47
2023-07-29T12:22:36.981Z,0.93
2023-07-29T12:25:37.649Z,0.93
2023-07-29T12:28:37.185Z,1.00
2023-07-29T12:31:37.380Z,0.80
2023-07-29T12:34:37.606Z,0.47
2023-07-29T12:37:38.849Z,1.00
2023-07-29T12:40:37.058Z,2.20
2023-07-29T12:43:37.042Z,0.40
2023-07-29T12:46:37.236Z,1.40
2023-07-29T12:49:37.050Z,0.40
2023-07-29T12:52:37.014Z,0.73
2023-07-29T12:55:40.559Z,0.00
2023-07-29T12:58:36.992Z,1.53
2023-07-29T13:01:37.435Z,1.40
2023-07-29T13:04:37.986Z,1.13
2023-07-29T13:07:37.857Z,2.00
2023-07-29T13:10:37.059Z,2.00
2023-07-29T13:13:37.103Z,2.00
2023-07-29T13:16:37.334Z,1.87
2023-07-29T13:19:37.035Z,2.07
2023-07-29T13:22:36.944Z,2.53
2023-07-29T13:25:36.986Z,3.00
2023-07-29T13:28:37.553Z,3.07
2023-07-29T13:31:37.271Z,4.73
2023-07-29T13:34:37.057Z,5.00
2023-07-29T13:37:40.093Z,4.87
2023-07-29T13:40:38.612Z,3.60
2023-07-29T13:43:37.082Z,5.47
2023-07-29T13:46:37.297Z,4.73
2023-07-29T13:49:37.034Z,3.80
2023-07-29T13:52:37.026Z,4.20
2023-07-29T13:55:37.064Z,4.27
2023-07-29T13:58:37.002Z,4.00
2023-07-29T14:01:37.435Z,4.00
2023-07-29T14:04:37.086Z,4.80
2023-07-29T14:07:48.533Z,5.00
2023-07-29T14:10:37.264Z,4.00
2023-07-29T14:13:37.054Z,4.33
2023-07-29T14:16:37.206Z,4.53
2023-07-29T14:19:37.140Z,5.00
2023-07-29T14:22:37.037Z,4.13
2023-07-29T14:25:37.148Z,3.80
2023-07-29T14:28:37.067Z,3.07
2023-07-29T14:31:37.146Z,3.00
2023-07-29T14:34:37.228Z,3.47
2023-07-29T14:37:36.984Z,3.33
2023-07-29T14:40:37.028Z,3.87
2023-07-29T14:43:39.932Z,2.80
2023-07-29T14:46:37.618Z,3.47
2023-07-29T14:49:37.140Z,2.40
2023-07-29T14:52:37.061Z,3.33
2023-07-29T14:55:37.044Z,2.40
2023-07-29T14:58:36.977Z,1.40
2023-07-29T15:01:37.451Z,1.80
2023-07-29T15:04:37.440Z,2.07
2023-07-29T15:07:37.092Z,1.53
2023-07-29T15:10:37.017Z,1.80
2023-07-29T15:13:37.008Z,1.33
2023-07-29T15:16:37.322Z,1.07
2023-07-29T15:19:37.208Z,1.00
2023-07-29T15:22:37.097Z,1.00
2023-07-29T15:25:36.978Z,0.40
2023-07-29T15:28:37.122Z,0.53
2023-07-29T15:31:37.528Z,0.00
2023-07-29T15:34:37.111Z,0.00
2023-07-29T15:37:37.030Z,0.00
2023-07-29T15:40:37.095Z,1.00
2023-07-29T15:43:37.096Z,0.00
2023-07-29T15:46:37.624Z,0.67
2023-07-29T15:49:37.077Z,1.20
2023-07-29T15:52:37.206Z,0.80
2023-07-29T15:55:37.203Z,0.80
2023-07-29T15:58:37.002Z,0.93
2023-07-29T16:01:37.392Z,0.33
2023-07-29T16:04:37.809Z,0.87
2023-07-29T16:07:37.089Z,1.93
2023-07-29T16:10:37.109Z,0.67
2023-07-29T16:13:37.126Z,0.40
2023-07-29T16:16:39.059Z,0.47
2023-07-29T16:19:38.310Z,1.13
2023-07-29T16:22:37.086Z,0.73
2023-07-29T16:25:37.358Z,0.60
2023-07-29T16:28:37.472Z,0.80
2023-07-29T16:31:37.427Z,1.40
2023-07-29T16:34:37.230Z,1.27
2023-07-29T16:37:37.198Z,1.00
2023-07-29T16:40:42.072Z,1.00
2023-07-29T16:46:37.522Z,1.00
2023-07-29T16:49:43.285Z,1.27
2023-07-29T16:52:37.114Z,1.27
2023-07-29T16:55:37.051Z,2.13
2023-07-29T16:58:37.078Z,1.27
2023-07-29T17:01:37.331Z,1.33
2023-07-29T17:04:37.585Z,2.20
2023-07-29T17:07:37.169Z,2.00
2023-07-29T17:10:38.027Z,1.00
2023-07-29T17:13:37.135Z,1.00
2023-07-29T17:16:37.758Z,1.07
2023-07-29T17:19:38.961Z,2.00
2023-07-29T17:22:37.078Z,1.00
2023-07-29T17:25:37.056Z,1.33
2023-07-29T17:28:37.244Z,1.67
2023-07-29T17:31:37.497Z,2.00
2023-07-29T17:34:39.037Z,1.00
2023-07-29T17:37:37.064Z,1.00
2023-07-29T17:40:37.134Z,1.27
2023-07-29T17:43:37.197Z,1.20
2023-07-29T17:46:37.944Z,4.40
2023-07-29T17:49:37.366Z,4.80
2023-07-29T17:52:37.130Z,4.53
2023-07-29T17:55:37.107Z,4.47
2023-07-29T17:58:37.061Z,3.47
2023-07-29T18:01:37.414Z,3.73
2023-07-29T18:04:37.402Z,3.00
2023-07-29T18:07:37.147Z,2.80
2023-07-29T18:10:37.362Z,2.80
2023-07-29T18:13:39.146Z,2.00
2023-07-29T18:16:37.391Z,2.00
2023-07-29T18:19:37.259Z,2.00
2023-07-29T18:22:37.304Z,2.13
2023-07-29T18:25:37.356Z,2.07
2023-07-29T18:28:37.352Z,2.00
2023-07-29T18:31:37.703Z,3.00
2023-07-29T18:34:37.267Z,5.00
2023-07-29T18:37:37.412Z,5.07
2023-07-29T18:40:37.218Z,4.33
2023-07-29T18:43:37.411Z,4.27
2023-07-29T18:46:38.753Z,3.67
2023-07-29T18:49:37.335Z,3.73
2023-07-29T18:52:37.361Z,2.93
2023-07-29T18:55:39.250Z,2.20
2023-07-29T18:58:37.473Z,1.60
2023-07-29T19:01:37.332Z,2.20
2023-07-29T19:04:37.670Z,2.73
2023-07-29T19:07:37.336Z,2.67
2023-07-29T19:10:39.541Z,3.27
2023-07-29T19:13:37.181Z,3.73
2023-07-29T19:16:37.961Z,3.00
2023-07-29T19:19:37.234Z,3.53
2023-07-29T19:22:37.169Z,3.00
2023-07-29T19:25:37.075Z,4.27
2023-07-29T19:28:37.306Z,3.60
2023-07-29T19:31:37.557Z,2.60
2023-07-29T19:34:37.190Z,3.53
2023-07-29T19:37:37.082Z,2.47
2023-07-29T19:40:37.376Z,4.13
2023-07-29T19:43:37.030Z,4.40
2023-07-29T19:46:53.391Z,3.47
2023-07-29T19:49:37.049Z,3.73
2023-07-29T19:52:37.114Z,3.60
2023-07-29T19:55:37.073Z,4.60
2023-07-29T19:58:37.031Z,4.00
2023-07-29T20:01:37.497Z,3.73
2023-07-29T20:04:37.370Z,3.67
2023-07-29T20:07:37.184Z,4.53
2023-07-29T20:10:37.371Z,4.00
2023-07-29T20:13:37.104Z,4.07
2023-07-29T20:16:37.402Z,4.07
2023-07-29T20:19:37.656Z,4.00
2023-07-29T20:22:37.166Z,3.53
2023-07-29T20:25:37.043Z,2.93
2023-07-29T20:28:37.209Z,2.87
2023-07-29T20:31:40.571Z,2.47
2023-07-29T20:34:37.180Z,2.27
2023-07-29T20:37:37.066Z,2.00
2023-07-29T20:40:37.277Z,2.00
2023-07-29T20:43:37.089Z,2.47
2023-07-29T20:46:37.107Z,1.53
2023-07-29T20:49:37.131Z,1.27
2023-07-29T20:52:37.069Z,2.00
2023-07-29T20:55:37.048Z,3.13
2023-07-29T20:58:37.109Z,2.07
2023-07-29T21:01:39.452Z,2.67
2023-07-29T21:04:37.328Z,2.27
2023-07-29T21:07:37.014Z,2.20
2023-07-29T21:10:37.070Z,2.73
2023-07-29T21:13:37.085Z,1.20
2023-07-29T21:16:38.804Z,1.87
2023-07-29T21:19:38.933Z,1.33
2023-07-29T21:22:37.076Z,1.53
2023-07-29T21:25:37.002Z,1.33
2023-07-29T21:28:37.294Z,2.27
2023-07-29T21:31:37.638Z,2.00
2023-07-29T21:34:37.154Z,1.27
2023-07-29T21:37:49.047Z,2.20
2023-07-29T21:40:37.150Z,1.00
2023-07-29T21:43:36.938Z,2.07
2023-07-29T21:46:37.104Z,1.33
2023-07-29T21:49:37.148Z,1.93
2023-07-29T21:52:37.186Z,1.73
2023-07-29T21:55:36.957Z,1.67
2023-07-29T21:58:37.138Z,1.20
2023-07-29T22:01:37.420Z,1.07
2023-07-29T22:04:37.140Z,1.33
2023-07-29T22:07:37.082Z,0.53
2023-07-29T22:10:37.002Z,1.00
2023-07-29T22:13:37.073Z,0.67
2023-07-29T22:16:37.244Z,0.93
2023-07-29T22:19:37.068Z,1.13
2023-07-29T22:22:37.200Z,0.93
2023-07-29T22:25:37.833Z,1.67
2023-07-29T22:28:37.159Z,1.53
2023-07-29T22:31:37.520Z,1.00
2023-07-29T22:34:37.641Z,1.13
2023-07-29T22:37:39.233Z,2.13
2023-07-29T22:40:37.138Z,2.40
2023-07-29T22:43:37.080Z,2.40
2023-07-29T22:46:37.502Z,1.47
2023-07-29T22:49:39.940Z,1.40
2023-07-29T22:52:37.143Z,2.13
2023-07-29T22:55:37.618Z,1.20
2023-07-29T22:58:37.063Z,4.00
2023-07-29T23:01:37.709Z,1.80
2023-07-29T23:04:37.827Z,1.00
2023-07-29T23:07:37.492Z,1.87
2023-07-29T23:10:37.181Z,2.27
2023-07-29T23:13:37.919Z,1.40
2023-07-29T23:16:37.706Z,2.47
2023-07-29T23:19:37.573Z,2.40
2023-07-29T23:22:37.346Z,3.93
2023-07-29T23:25:37.183Z,3.07
2023-07-29T23:28:37.396Z,2.53
2023-07-29T23:31:37.864Z,2.33
2023-07-29T23:34:37.066Z,2.53
2023-07-29T23:37:37.153Z,2.00
2023-07-29T23:40:37.459Z,2.80
2023-07-29T23:43:37.235Z,1.60
2023-07-29T23:46:37.521Z,2.13
2023-07-29T23:49:38.083Z,3.00
2023-07-29T23:52:37.219Z,2.93
2023-07-29T23:55:37.107Z,2.60
2023-07-29T23:58:37.463Z,2.20
